Main page
METAR-TAF:

METAR-TAF

Airports :

Benbecula Airport

Benbecula, Scotland

latitude: 57-28N, longitude: 007-22W, elevation: 6 m

Current weather observation

The report was made 23 minutes ago, at 08:50 UTC
Wind 17 kt from the Southwest
Temperature 9°C
Humidity 87%
Pressure 1028 hPa
Visibility 10 km or more
Few clouds at a height of 800 ft
Scattered clouds at a height of 2700 ft
Broken clouds at a height of 4500 ft

METAR: EGPL 260850Z 22017KT 9999 FEW008 SCT027 BKN045 09/07 Q1028

Time: 09:13 (09:13 UTC)

Forecast

The report was made 1 hour and 15 minutes ago, at 07:58 UTC
Forecast valid from 26 at 09 UTC to 26 at 17 UTC
Wind 15 kt from the Southwest
Visibility 10 km or more
Scattered clouds at a height of 2000 ft
Broken clouds at a height of 4000 ft
Temporary
from 26 at 09 UTC to 26 at 17 UTC
Wind 18 kt from the West/Southwest with gusts up to 28 kt
Visibility: 8000 m
Broken clouds at a height of 1200 ft
light rain

TAF: EGPL 260758Z 2609/2617 23015KT 9999 SCT020 BKN040 TEMPO 2609/2617 24018G28KT 8000 -RA BKN012

Weather observations and forecasts of more than 4000 airports (METAR and TAF reports).

The available stations are represented by yellow and red dots on the map.

Hover mouse over dot to see the name of the station.

Then click to see weather observations and forecasts.

To change the map : click on the green buttons with a black cross to zoom in, on the green button with a dash to zoom out, or on the green arrows for adjacent maps.


METAR-TAF: